sensor_id;sensor_type;location;lat;lon;timestamp;temperature;humidity
30001;DHT22;16845;48.670;9.000;2023-04-19T00:02:10;9.30;99.90
30001;DHT22;16845;48.670;9.000;2023-04-19T00:04:37;9.30;99.90
30001;DHT22;16845;48.670;9.000;2023-04-19T00:07:04;9.30;99.90
30001;DHT22;16845;48.670;9.000;2023-04-19T00:09:31;9.30;99.90
30001;DHT22;16845;48.670;9.000;2023-04-19T00:11:58;9.30;99.90
30001;DHT22;16845;48.670;9.000;2023-04-19T00:14:26;9.30;99.90
30001;DHT22;16845;48.670;9.000;2023-04-19T00:16:52;9.30;99.90
30001;DHT22;16845;48.670;9.000;2023-04-19T00:19:19;9.40;99.90
30001;DHT22;16845;48.670;9.000;2023-04-19T00:21:46;9.30;99.90
30001;DHT22;16845;48.670;9.000;2023-04-19T00:24:13;9.30;99.90
30001;DHT22;16845;48.670;9.000;2023-04-19T00:26:40;9.30;99.90
30001;DHT22;16845;48.670;9.000;2023-04-19T00:29:07;9.20;99.90
30001;DHT22;16845;48.670;9.000;2023-04-19T00:31:35;9.20;99.90
30001;DHT22;16845;48.670;9.000;2023-04-19T00:34:02;9.20;99.90
30001;DHT22;16845;48.670;9.000;2023-04-19T00:36:28;9.20;99.90
30001;DHT22;16845;48.670;9.000;2023-04-19T00:38:55;9.20;99.90
30001;DHT22;16845;48.670;9.000;2023-04-19T00:41:22;9.20;99.90
30001;DHT22;16845;48.670;9.000;2023-04-19T00:43:49;9.20;99.90
30001;DHT22;16845;48.670;9.000;2023-04-19T00:46:15;9.20;99.90
30001;DHT22;16845;48.670;9.000;2023-04-19T00:48:44;9.20;99.90
30001;DHT22;16845;48.670;9.000;2023-04-19T00:51:11;9.20;99.90
30001;DHT22;16845;48.670;9.000;2023-04-19T00:53:39;9.20;99.90
30001;DHT22;16845;48.670;9.000;2023-04-19T00:56:07;9.10;99.90
30001;DHT22;16845;48.670;9.000;2023-04-19T00:58:35;9.10;99.90
30001;DHT22;16845;48.670;9.000;2023-04-19T01:01:03;9.10;99.90
30001;DHT22;16845;48.670;9.000;2023-04-19T01:06:13;9.10;99.90
30001;DHT22;16845;48.670;9.000;2023-04-19T01:08:40;9.10;99.90
30001;DHT22;16845;48.670;9.000;2023-04-19T01:11:07;9.10;99.90
30001;DHT22;16845;48.670;9.000;2023-04-19T01:13:34;9.10;99.90
30001;DHT22;16845;48.670;9.000;2023-04-19T01:16:00;9.10;99.90
30001;DHT22;16845;48.670;9.000;2023-04-19T01:18:27;9.10;99.90
30001;DHT22;16845;48.670;9.000;2023-04-19T01:20:54;9.10;99.90
30001;DHT22;16845;48.670;9.000;2023-04-19T01:23:22;9.10;99.90
30001;DHT22;16845;48.670;9.000;2023-04-19T01:25:49;9.00;99.90
30001;DHT22;16845;48.670;9.000;2023-04-19T01:28:16;9.00;99.90
30001;DHT22;16845;48.670;9.000;2023-04-19T01:30:42;9.10;99.90
30001;DHT22;16845;48.670;9.000;2023-04-19T01:33:09;9.00;99.90
30001;DHT22;16845;48.670;9.000;2023-04-19T01:35:36;9.00;99.90
30001;DHT22;16845;48.670;9.000;2023-04-19T01:38:05;9.00;99.90
30001;DHT22;16845;48.670;9.000;2023-04-19T01:40:33;9.00;99.90
30001;DHT22;16845;48.670;9.000;2023-04-19T01:42:59;9.00;99.90
30001;DHT22;16845;48.670;9.000;2023-04-19T01:45:26;9.00;99.90
30001;DHT22;16845;48.670;9.000;2023-04-19T01:47:53;9.00;99.90
30001;DHT22;16845;48.670;9.000;2023-04-19T01:50:20;9.00;99.90
30001;DHT22;16845;48.670;9.000;2023-04-19T01:52:46;8.90;99.90
30001;DHT22;16845;48.670;9.000;2023-04-19T01:55:13;9.00;99.90
30001;DHT22;16845;48.670;9.000;2023-04-19T01:57:41;9.00;99.90
30001;DHT22;16845;48.670;9.000;2023-04-19T02:00:09;9.00;99.90
30001;DHT22;16845;48.670;9.000;2023-04-19T02:02:36;9.00;99.90
30001;DHT22;16845;48.670;9.000;2023-04-19T02:05:04;9.00;99.90
30001;DHT22;16845;48.670;9.000;2023-04-19T02:07:31;9.00;99.90
30001;DHT22;16845;48.670;9.000;2023-04-19T02:09:58;9.00;99.90
30001;DHT22;16845;48.670;9.000;2023-04-19T02:12:25;9.00;99.90
30001;DHT22;16845;48.670;9.000;2023-04-19T02:14:53;8.90;99.90
30001;DHT22;16845;48.670;9.000;2023-04-19T02:17:20;8.90;99.90
30001;DHT22;16845;48.670;9.000;2023-04-19T02:19:47;8.90;99.90
30001;DHT22;16845;48.670;9.000;2023-04-19T02:22:14;8.90;99.90
30001;DHT22;16845;48.670;9.000;2023-04-19T02:24:59;8.90;99.90
30001;DHT22;16845;48.670;9.000;2023-04-19T02:27:25;8.90;99.90
30001;DHT22;16845;48.670;9.000;2023-04-19T02:29:54;8.90;99.90
30001;DHT22;16845;48.670;9.000;2023-04-19T02:35:27;8.90;99.90
30001;DHT22;16845;48.670;9.000;2023-04-19T02:37:54;8.90;99.90
30001;DHT22;16845;48.670;9.000;2023-04-19T02:40:21;8.90;99.90
30001;DHT22;16845;48.670;9.000;2023-04-19T02:42:48;8.90;99.90
30001;DHT22;16845;48.670;9.000;2023-04-19T02:45:16;9.00;99.90
30001;DHT22;16845;48.670;9.000;2023-04-19T02:47:43;8.90;99.90
30001;DHT22;16845;48.670;9.000;2023-04-19T02:50:09;8.90;99.90
30001;DHT22;16845;48.670;9.000;2023-04-19T02:52:36;8.90;99.90
30001;DHT22;16845;48.670;9.000;2023-04-19T02:55:03;8.90;99.90
30001;DHT22;16845;48.670;9.000;2023-04-19T02:57:30;8.80;99.90
30001;DHT22;16845;48.670;9.000;2023-04-19T02:59:57;8.80;99.90
30001;DHT22;16845;48.670;9.000;2023-04-19T03:02:26;8.80;99.90
30001;DHT22;16845;48.670;9.000;2023-04-19T03:04:52;8.80;99.90
30001;DHT22;16845;48.670;9.000;2023-04-19T03:07:19;8.80;99.90
30001;DHT22;16845;48.670;9.000;2023-04-19T03:09:46;8.80;99.90
30001;DHT22;16845;48.670;9.000;2023-04-19T03:12:13;8.80;99.90
30001;DHT22;16845;48.670;9.000;2023-04-19T03:14:39;8.70;99.90
30001;DHT22;16845;48.670;9.000;2023-04-19T03:17:06;8.70;99.90
30001;DHT22;16845;48.670;9.000;2023-04-19T03:19:34;8.70;99.90
30001;DHT22;16845;48.670;9.000;2023-04-19T03:22:01;8.70;99.90
30001;DHT22;16845;48.670;9.000;2023-04-19T03:24:28;8.60;99.90
30001;DHT22;16845;48.670;9.000;2023-04-19T03:26:55;8.60;99.90
30001;DHT22;16845;48.670;9.000;2023-04-19T03:29:22;8.60;99.90
30001;DHT22;16845;48.670;9.000;2023-04-19T03:31:49;8.60;99.90
30001;DHT22;16845;48.670;9.000;2023-04-19T03:34:15;8.60;99.90
30001;DHT22;16845;48.670;9.000;2023-04-19T03:36:44;8.60;99.90
30001;DHT22;16845;48.670;9.000;2023-04-19T03:39:11;8.60;99.90
30001;DHT22;16845;48.670;9.000;2023-04-19T03:41:39;8.60;99.90
30001;DHT22;16845;48.670;9.000;2023-04-19T03:44:06;8.60;99.90
30001;DHT22;16845;48.670;9.000;2023-04-19T03:46:32;8.60;99.90
30001;DHT22;16845;48.670;9.000;2023-04-19T03:48:59;8.50;99.90
30001;DHT22;16845;48.670;9.000;2023-04-19T03:51:26;8.60;99.90
30001;DHT22;16845;48.670;9.000;2023-04-19T03:53:54;8.60;99.90
30001;DHT22;16845;48.670;9.000;2023-04-19T03:56:21;8.60;99.90
30001;DHT22;16845;48.670;9.000;2023-04-19T03:58:49;8.60;99.90
30001;DHT22;16845;48.670;9.000;2023-04-19T04:01:17;8.50;99.90
30001;DHT22;16845;48.670;9.000;2023-04-19T04:03:44;8.50;99.90
30001;DHT22;16845;48.670;9.000;2023-04-19T04:06:11;8.50;99.90
30001;DHT22;16845;48.670;9.000;2023-04-19T04:08:38;8.50;99.90
30001;DHT22;16845;48.670;9.000;2023-04-19T04:11:06;8.40;99.90
30001;DHT22;16845;48.670;9.000;2023-04-19T04:13:34;8.50;99.90
30001;DHT22;16845;48.670;9.000;2023-04-19T04:16:01;8.40;99.90
30001;DHT22;16845;48.670;9.000;2023-04-19T04:18:28;8.40;99.90
30001;DHT22;16845;48.670;9.000;2023-04-19T04:20:55;8.30;99.90
30001;DHT22;16845;48.670;9.000;2023-04-19T04:23:21;8.30;99.90
30001;DHT22;16845;48.670;9.000;2023-04-19T04:25:55;8.30;99.90
30001;DHT22;16845;48.670;9.000;2023-04-19T04:28:23;8.30;99.90
30001;DHT22;16845;48.670;9.000;2023-04-19T04:30:50;8.30;99.90
30001;DHT22;16845;48.670;9.000;2023-04-19T04:33:17;8.30;99.90
30001;DHT22;16845;48.670;9.000;2023-04-19T04:35:44;8.30;99.90
30001;DHT22;16845;48.670;9.000;2023-04-19T04:38:10;8.30;99.90
30001;DHT22;16845;48.670;9.000;2023-04-19T04:40:50;8.30;99.90
30001;DHT22;16845;48.670;9.000;2023-04-19T04:43:17;8.40;99.90
30001;DHT22;16845;48.670;9.000;2023-04-19T04:45:45;8.40;99.90
30001;DHT22;16845;48.670;9.000;2023-04-19T04:48:12;8.40;99.90
30001;DHT22;16845;48.670;9.000;2023-04-19T04:50:39;8.40;99.90
30001;DHT22;16845;48.670;9.000;2023-04-19T04:53:06;8.40;99.90
30001;DHT22;16845;48.670;9.000;2023-04-19T04:55:33;8.40;99.90
30001;DHT22;16845;48.670;9.000;2023-04-19T04:58:00;8.50;99.90
30001;DHT22;16845;48.670;9.000;2023-04-19T05:00:26;8.40;99.90
30001;DHT22;16845;48.670;9.000;2023-04-19T05:02:54;8.50;99.90
30001;DHT22;16845;48.670;9.000;2023-04-19T05:05:24;8.50;99.90
30001;DHT22;16845;48.670;9.000;2023-04-19T05:07:51;8.40;99.90
30001;DHT22;16845;48.670;9.000;2023-04-19T05:10:18;8.40;99.90
30001;DHT22;16845;48.670;9.000;2023-04-19T05:12:44;8.30;99.90
30001;DHT22;16845;48.670;9.000;2023-04-19T05:15:11;8.30;99.90
30001;DHT22;16845;48.670;9.000;2023-04-19T05:17:38;8.40;99.90
30001;DHT22;16845;48.670;9.000;2023-04-19T05:20:07;8.50;99.90
30001;DHT22;16845;48.670;9.000;2023-04-19T05:22:34;8.50;99.90
30001;DHT22;16845;48.670;9.000;2023-04-19T05:25:01;8.50;99.90
30001;DHT22;16845;48.670;9.000;2023-04-19T05:27:27;8.60;99.90
30001;DHT22;16845;48.670;9.000;2023-04-19T05:29:54;8.60;99.90
30001;DHT22;16845;48.670;9.000;2023-04-19T05:32:21;8.70;99.90
30001;DHT22;16845;48.670;9.000;2023-04-19T05:34:48;8.60;99.90
30001;DHT22;16845;48.670;9.000;2023-04-19T05:37:16;8.60;99.90
30001;DHT22;16845;48.670;9.000;2023-04-19T05:39:43;8.60;99.90
30001;DHT22;16845;48.670;9.000;2023-04-19T05:42:10;8.60;99.90
30001;DHT22;16845;48.670;9.000;2023-04-19T05:44:37;8.60;99.90
30001;DHT22;16845;48.670;9.000;2023-04-19T05:47:03;8.60;99.90
30001;DHT22;16845;48.670;9.000;2023-04-19T05:49:30;8.60;99.90
30001;DHT22;16845;48.670;9.000;2023-04-19T05:51:57;8.70;99.90
30001;DHT22;16845;48.670;9.000;2023-04-19T05:54:25;8.80;99.90
30001;DHT22;16845;48.670;9.000;2023-04-19T05:56:52;8.80;99.90
30001;DHT22;16845;48.670;9.000;2023-04-19T05:59:19;8.80;99.90
30001;DHT22;16845;48.670;9.000;2023-04-19T06:01:45;8.80;99.90
30001;DHT22;16845;48.670;9.000;2023-04-19T06:04:12;8.90;99.90
30001;DHT22;16845;48.670;9.000;2023-04-19T06:06:40;8.90;99.90
30001;DHT22;16845;48.670;9.000;2023-04-19T06:09:06;8.80;99.90
30001;DHT22;16845;48.670;9.000;2023-04-19T06:11:34;8.90;99.90
30001;DHT22;16845;48.670;9.000;2023-04-19T06:14:15;8.90;99.90
30001;DHT22;16845;48.670;9.000;2023-04-19T06:16:43;8.90;99.90
30001;DHT22;16845;48.670;9.000;2023-04-19T06:19:09;8.80;99.90
30001;DHT22;16845;48.670;9.000;2023-04-19T06:21:36;8.80;99.90
30001;DHT22;16845;48.670;9.000;2023-04-19T06:24:04;8.80;99.90
30001;DHT22;16845;48.670;9.000;2023-04-19T06:26:31;8.80;99.90
30001;DHT22;16845;48.670;9.000;2023-04-19T06:28:59;8.80;99.90
30001;DHT22;16845;48.670;9.000;2023-04-19T06:31:26;8.80;99.90
30001;DHT22;16845;48.670;9.000;2023-04-19T06:33:53;8.90;99.90
30001;DHT22;16845;48.670;9.000;2023-04-19T06:36:20;8.80;99.90
30001;DHT22;16845;48.670;9.000;2023-04-19T06:38:46;8.80;99.90
30001;DHT22;16845;48.670;9.000;2023-04-19T06:41:13;8.90;99.90
30001;DHT22;16845;48.670;9.000;2023-04-19T06:43:40;8.90;99.90
30001;DHT22;16845;48.670;9.000;2023-04-19T06:46:08;8.90;99.90
30001;DHT22;16845;48.670;9.000;2023-04-19T06:48:35;8.90;99.90
30001;DHT22;16845;48.670;9.000;2023-04-19T06:51:02;9.00;99.90
30001;DHT22;16845;48.670;9.000;2023-04-19T06:53:29;9.00;99.90
30001;DHT22;16845;48.670;9.000;2023-04-19T06:55:58;9.10;99.90
30001;DHT22;16845;48.670;9.000;2023-04-19T06:58:25;9.20;99.90
30001;DHT22;16845;48.670;9.000;2023-04-19T07:00:52;9.30;99.90
30001;DHT22;16845;48.670;9.000;2023-04-19T07:03:20;9.60;99.90
30001;DHT22;16845;48.670;9.000;2023-04-19T07:05:48;9.70;99.90
30001;DHT22;16845;48.670;9.000;2023-04-19T07:08:15;9.80;99.90
30001;DHT22;16845;48.670;9.000;2023-04-19T07:10:42;9.80;99.90
30001;DHT22;16845;48.670;9.000;2023-04-19T07:13:09;9.70;99.90
30001;DHT22;16845;48.670;9.000;2023-04-19T07:15:36;9.70;99.90
30001;DHT22;16845;48.670;9.000;2023-04-19T07:18:04;9.80;99.90
30001;DHT22;16845;48.670;9.000;2023-04-19T07:20:32;9.90;99.90
30001;DHT22;16845;48.670;9.000;2023-04-19T07:22:59;9.90;99.90
30001;DHT22;16845;48.670;9.000;2023-04-19T07:25:26;9.80;99.90
30001;DHT22;16845;48.670;9.000;2023-04-19T07:27:53;9.80;99.90
30001;DHT22;16845;48.670;9.000;2023-04-19T07:30:20;9.80;99.90
30001;DHT22;16845;48.670;9.000;2023-04-19T07:32:47;9.80;99.90
30001;DHT22;16845;48.670;9.000;2023-04-19T07:35:14;9.80;99.90
30001;DHT22;16845;48.670;9.000;2023-04-19T07:37:42;9.90;99.90
30001;DHT22;16845;48.670;9.000;2023-04-19T07:40:10;10.00;99.90
30001;DHT22;16845;48.670;9.000;2023-04-19T07:42:37;10.10;99.90
30001;DHT22;16845;48.670;9.000;2023-04-19T07:45:05;10.10;99.90
30001;DHT22;16845;48.670;9.000;2023-04-19T07:47:32;10.10;99.90
30001;DHT22;16845;48.670;9.000;2023-04-19T07:49:59;10.00;99.90
30001;DHT22;16845;48.670;9.000;2023-04-19T07:52:26;10.30;99.90
30001;DHT22;16845;48.670;9.000;2023-04-19T07:54:54;10.40;99.90
30001;DHT22;16845;48.670;9.000;2023-04-19T07:57:21;10.60;99.90
30001;DHT22;16845;48.670;9.000;2023-04-19T07:59:48;10.70;99.90
30001;DHT22;16845;48.670;9.000;2023-04-19T08:02:14;10.70;99.90
30001;DHT22;16845;48.670;9.000;2023-04-19T08:04:41;10.70;99.90
30001;DHT22;16845;48.670;9.000;2023-04-19T08:07:10;10.90;99.90
30001;DHT22;16845;48.670;9.000;2023-04-19T08:09:37;11.00;99.90
30001;DHT22;16845;48.670;9.000;2023-04-19T08:12:06;11.00;99.90
30001;DHT22;16845;48.670;9.000;2023-04-19T08:14:32;11.10;99.90
30001;DHT22;16845;48.670;9.000;2023-04-19T08:17:13;11.20;99.90
30001;DHT22;16845;48.670;9.000;2023-04-19T08:19:52;11.30;99.90
30001;DHT22;16845;48.670;9.000;2023-04-19T08:22:19;11.50;99.90
30001;DHT22;16845;48.670;9.000;2023-04-19T08:24:48;11.80;99.90
30001;DHT22;16845;48.670;9.000;2023-04-19T08:27:19;12.00;99.90
30001;DHT22;16845;48.670;9.000;2023-04-19T08:29:46;12.20;99.90
30001;DHT22;16845;48.670;9.000;2023-04-19T08:32:12;12.40;99.90
30001;DHT22;16845;48.670;9.000;2023-04-19T08:34:39;12.60;99.90
30001;DHT22;16845;48.670;9.000;2023-04-19T08:37:06;13.10;99.90
30001;DHT22;16845;48.670;9.000;2023-04-19T08:39:33;13.90;99.90
30001;DHT22;16845;48.670;9.000;2023-04-19T08:42:02;14.60;99.90
30001;DHT22;16845;48.670;9.000;2023-04-19T08:44:37;14.70;99.90
30001;DHT22;16845;48.670;9.000;2023-04-19T08:47:25;14.30;99.90
30001;DHT22;16845;48.670;9.000;2023-04-19T08:50:00;13.90;99.90
30001;DHT22;16845;48.670;9.000;2023-04-19T08:52:46;13.80;99.90
30001;DHT22;16845;48.670;9.000;2023-04-19T08:55:24;13.50;99.90
30001;DHT22;16845;48.670;9.000;2023-04-19T08:57:51;13.10;99.90
30001;DHT22;16845;48.670;9.000;2023-04-19T09:00:20;13.00;99.90
30001;DHT22;16845;48.670;9.000;2023-04-19T09:02:48;12.90;99.90
30001;DHT22;16845;48.670;9.000;2023-04-19T09:05:17;13.00;99.90
30001;DHT22;16845;48.670;9.000;2023-04-19T09:07:45;13.30;99.90
30001;DHT22;16845;48.670;9.000;2023-04-19T09:10:12;13.50;99.90
30001;DHT22;16845;48.670;9.000;2023-04-19T09:12:40;13.70;99.90
30001;DHT22;16845;48.670;9.000;2023-04-19T09:15:07;13.90;99.90
30001;DHT22;16845;48.670;9.000;2023-04-19T09:17:36;13.50;99.90
30001;DHT22;16845;48.670;9.000;2023-04-19T09:20:06;13.20;99.90
30001;DHT22;16845;48.670;9.000;2023-04-19T09:22:33;13.30;99.90
30001;DHT22;16845;48.670;9.000;2023-04-19T09:24:59;13.60;99.90
30001;DHT22;16845;48.670;9.000;2023-04-19T09:27:31;13.80;99.90
30001;DHT22;16845;48.670;9.000;2023-04-19T09:29:59;14.10;99.90
30001;DHT22;16845;48.670;9.000;2023-04-19T09:32:40;14.30;99.90
30001;DHT22;16845;48.670;9.000;2023-04-19T09:35:12;14.80;99.90
30001;DHT22;16845;48.670;9.000;2023-04-19T09:37:39;15.80;99.90
30001;DHT22;16845;48.670;9.000;2023-04-19T09:40:23;16.60;99.90
30001;DHT22;16845;48.670;9.000;2023-04-19T09:42:50;18.20;99.90
30001;DHT22;16845;48.670;9.000;2023-04-19T09:45:20;19.00;99.90
30001;DHT22;16845;48.670;9.000;2023-04-19T09:48:02;18.80;99.90
30001;DHT22;16845;48.670;9.000;2023-04-19T09:50:31;17.80;99.90
30001;DHT22;16845;48.670;9.000;2023-04-19T09:53:04;16.80;99.90
30001;DHT22;16845;48.670;9.000;2023-04-19T09:55:34;15.70;99.90
30001;DHT22;16845;48.670;9.000;2023-04-19T09:58:04;15.10;99.90
30001;DHT22;16845;48.670;9.000;2023-04-19T10:00:32;14.60;99.90
30001;DHT22;16845;48.670;9.000;2023-04-19T10:03:13;14.90;99.90
30001;DHT22;16845;48.670;9.000;2023-04-19T10:05:43;15.90;99.90
30001;DHT22;16845;48.670;9.000;2023-04-19T10:08:12;17.80;99.90
30001;DHT22;16845;48.670;9.000;2023-04-19T10:10:39;19.50;99.90
30001;DHT22;16845;48.670;9.000;2023-04-19T10:13:12;20.30;99.90
30001;DHT22;16845;48.670;9.000;2023-04-19T10:15:42;20.50;99.90
30001;DHT22;16845;48.670;9.000;2023-04-19T10:18:21;19.90;99.90
30001;DHT22;16845;48.670;9.000;2023-04-19T10:20:53;19.10;99.90
30001;DHT22;16845;48.670;9.000;2023-04-19T10:23:21;18.30;99.90
30001;DHT22;16845;48.670;9.000;2023-04-19T10:25:48;18.10;99.90
30001;DHT22;16845;48.670;9.000;2023-04-19T10:28:20;17.90;99.90
30001;DHT22;16845;48.670;9.000;2023-04-19T10:30:57;17.10;99.90
30001;DHT22;16845;48.670;9.000;2023-04-19T10:33:25;16.10;99.90
30001;DHT22;16845;48.670;9.000;2023-04-19T10:35:56;15.80;99.90
30001;DHT22;16845;48.670;9.000;2023-04-19T10:38:39;14.90;99.90
30001;DHT22;16845;48.670;9.000;2023-04-19T10:41:06;14.60;99.90
30001;DHT22;16845;48.670;9.000;2023-04-19T10:43:33;14.60;99.90
30001;DHT22;16845;48.670;9.000;2023-04-19T10:46:01;14.70;99.90
30001;DHT22;16845;48.670;9.000;2023-04-19T10:48:32;14.70;99.90
30001;DHT22;16845;48.670;9.000;2023-04-19T10:51:02;14.90;99.90
30001;DHT22;16845;48.670;9.000;2023-04-19T10:53:59;14.70;99.90
30001;DHT22;16845;48.670;9.000;2023-04-19T10:59:37;14.00;99.90
30001;DHT22;16845;48.670;9.000;2023-04-19T11:02:04;14.00;99.90
30001;DHT22;16845;48.670;9.000;2023-04-19T11:04:57;13.70;99.90
30001;DHT22;16845;48.670;9.000;2023-04-19T11:07:25;13.70;99.90
30001;DHT22;16845;48.670;9.000;2023-04-19T11:09:52;14.10;99.90
30001;DHT22;16845;48.670;9.000;2023-04-19T11:12:21;14.50;99.90
30001;DHT22;16845;48.670;9.000;2023-04-19T11:14:51;14.30;99.90
30001;DHT22;16845;48.670;9.000;2023-04-19T11:17:19;14.60;99.90
30001;DHT22;16845;48.670;9.000;2023-04-19T11:19:52;14.60;99.90
30001;DHT22;16845;48.670;9.000;2023-04-19T11:22:25;14.80;99.90
30001;DHT22;16845;48.670;9.000;2023-04-19T11:24:52;14.40;99.90
30001;DHT22;16845;48.670;9.000;2023-04-19T11:27:19;13.90;99.90
30001;DHT22;16845;48.670;9.000;2023-04-19T11:29:46;13.80;99.90
30001;DHT22;16845;48.670;9.000;2023-04-19T11:32:13;13.80;99.90
30001;DHT22;16845;48.670;9.000;2023-04-19T11:34:40;13.70;99.90
30001;DHT22;16845;48.670;9.000;2023-04-19T11:37:08;13.70;99.90
30001;DHT22;16845;48.670;9.000;2023-04-19T11:39:45;13.20;99.90
30001;DHT22;16845;48.670;9.000;2023-04-19T11:42:20;12.90;99.90
30001;DHT22;16845;48.670;9.000;2023-04-19T11:44:48;12.50;99.90
30001;DHT22;16845;48.670;9.000;2023-04-19T11:47:15;12.40;99.90
30001;DHT22;16845;48.670;9.000;2023-04-19T11:49:42;12.50;99.90
30001;DHT22;16845;48.670;9.000;2023-04-19T11:52:09;12.30;99.90
30001;DHT22;16845;48.670;9.000;2023-04-19T11:54:35;12.20;99.90
30001;DHT22;16845;48.670;9.000;2023-04-19T11:57:05;12.10;99.90
30001;DHT22;16845;48.670;9.000;2023-04-19T11:59:33;12.00;99.90
30001;DHT22;16845;48.670;9.000;2023-04-19T12:02:07;12.00;99.90
30001;DHT22;16845;48.670;9.000;2023-04-19T12:04:34;12.20;99.90
30001;DHT22;16845;48.670;9.000;2023-04-19T12:07:02;12.30;99.90
30001;DHT22;16845;48.670;9.000;2023-04-19T12:09:31;12.20;99.90
30001;DHT22;16845;48.670;9.000;2023-04-19T12:11:58;12.30;99.90
30001;DHT22;16845;48.670;9.000;2023-04-19T12:14:26;12.40;99.90
30001;DHT22;16845;48.670;9.000;2023-04-19T12:17:06;12.00;99.90
30001;DHT22;16845;48.670;9.000;2023-04-19T12:19:34;11.90;99.90
30001;DHT22;16845;48.670;9.000;2023-04-19T12:22:07;11.90;99.90
30001;DHT22;16845;48.670;9.000;2023-04-19T12:24:34;11.80;99.90
30001;DHT22;16845;48.670;9.000;2023-04-19T12:27:00;11.70;99.90
30001;DHT22;16845;48.670;9.000;2023-04-19T12:29:30;11.40;99.90
30001;DHT22;16845;48.670;9.000;2023-04-19T12:31:56;11.30;99.90
30001;DHT22;16845;48.670;9.000;2023-04-19T12:34:23;11.30;99.90
30001;DHT22;16845;48.670;9.000;2023-04-19T12:36:50;11.30;99.90
30001;DHT22;16845;48.670;9.000;2023-04-19T12:39:17;11.10;99.90
30001;DHT22;16845;48.670;9.000;2023-04-19T12:41:44;11.10;99.90
30001;DHT22;16845;48.670;9.000;2023-04-19T12:44:10;11.10;99.90
30001;DHT22;16845;48.670;9.000;2023-04-19T12:46:38;11.20;99.90
30001;DHT22;16845;48.670;9.000;2023-04-19T12:49:06;11.20;99.90
30001;DHT22;16845;48.670;9.000;2023-04-19T12:51:32;11.10;99.90
30001;DHT22;16845;48.670;9.000;2023-04-19T12:53:59;10.90;99.90
30001;DHT22;16845;48.670;9.000;2023-04-19T12:56:26;10.80;99.90
30001;DHT22;16845;48.670;9.000;2023-04-19T12:58:53;10.80;99.90
30001;DHT22;16845;48.670;9.000;2023-04-19T13:01:19;10.80;99.90
30001;DHT22;16845;48.670;9.000;2023-04-19T13:03:47;10.80;99.90
30001;DHT22;16845;48.670;9.000;2023-04-19T13:06:14;10.70;99.90
30001;DHT22;16845;48.670;9.000;2023-04-19T13:08:41;10.60;99.90
30001;DHT22;16845;48.670;9.000;2023-04-19T13:11:15;10.50;99.90
30001;DHT22;16845;48.670;9.000;2023-04-19T13:13:42;10.30;99.90
30001;DHT22;16845;48.670;9.000;2023-04-19T13:16:08;10.30;99.90
30001;DHT22;16845;48.670;9.000;2023-04-19T13:18:35;10.20;99.90
30001;DHT22;16845;48.670;9.000;2023-04-19T13:21:04;10.10;99.90
30001;DHT22;16845;48.670;9.000;2023-04-19T13:23:33;10.00;99.90
30001;DHT22;16845;48.670;9.000;2023-04-19T13:26:02;9.80;99.90
30001;DHT22;16845;48.670;9.000;2023-04-19T13:28:28;9.70;99.90
30001;DHT22;16845;48.670;9.000;2023-04-19T13:30:55;9.60;99.90
30001;DHT22;16845;48.670;9.000;2023-04-19T13:33:22;9.60;99.90
30001;DHT22;16845;48.670;9.000;2023-04-19T13:35:49;9.50;99.90
30001;DHT22;16845;48.670;9.000;2023-04-19T13:38:17;9.50;99.90
30001;DHT22;16845;48.670;9.000;2023-04-19T13:40:44;9.40;99.90
30001;DHT22;16845;48.670;9.000;2023-04-19T13:43:10;9.50;99.90
30001;DHT22;16845;48.670;9.000;2023-04-19T13:45:37;9.40;99.90
30001;DHT22;16845;48.670;9.000;2023-04-19T13:48:04;9.50;99.90
30001;DHT22;16845;48.670;9.000;2023-04-19T13:50:31;9.40;99.90
30001;DHT22;16845;48.670;9.000;2023-04-19T13:52:58;9.30;99.90
30001;DHT22;16845;48.670;9.000;2023-04-19T13:55:26;9.30;99.90
30001;DHT22;16845;48.670;9.000;2023-04-19T13:57:53;9.40;99.90
30001;DHT22;16845;48.670;9.000;2023-04-19T14:00:20;9.40;99.90
30001;DHT22;16845;48.670;9.000;2023-04-19T14:02:47;9.30;99.90
30001;DHT22;16845;48.670;9.000;2023-04-19T14:05:17;9.30;99.90
30001;DHT22;16845;48.670;9.000;2023-04-19T14:07:44;9.30;99.90
30001;DHT22;16845;48.670;9.000;2023-04-19T14:10:11;9.30;99.90
30001;DHT22;16845;48.670;9.000;2023-04-19T14:12:39;9.40;99.90
30001;DHT22;16845;48.670;9.000;2023-04-19T14:15:06;9.40;99.90
30001;DHT22;16845;48.670;9.000;2023-04-19T14:17:33;9.40;99.90
30001;DHT22;16845;48.670;9.000;2023-04-19T14:20:00;9.40;99.90
30001;DHT22;16845;48.670;9.000;2023-04-19T14:22:27;9.40;99.90
30001;DHT22;16845;48.670;9.000;2023-04-19T14:24:54;9.30;99.90
30001;DHT22;16845;48.670;9.000;2023-04-19T14:27:20;9.40;99.90
30001;DHT22;16845;48.670;9.000;2023-04-19T14:29:48;9.40;99.90
30001;DHT22;16845;48.670;9.000;2023-04-19T14:32:15;9.40;99.90
30001;DHT22;16845;48.670;9.000;2023-04-19T14:34:52;9.40;99.90
30001;DHT22;16845;48.670;9.000;2023-04-19T14:37:21;9.40;99.90
30001;DHT22;16845;48.670;9.000;2023-04-19T14:39:48;9.30;99.90
30001;DHT22;16845;48.670;9.000;2023-04-19T14:42:15;9.40;99.90
30001;DHT22;16845;48.670;9.000;2023-04-19T14:44:44;9.40;99.90
30001;DHT22;16845;48.670;9.000;2023-04-19T14:47:12;9.40;99.90
30001;DHT22;16845;48.670;9.000;2023-04-19T14:49:39;9.40;99.90
30001;DHT22;16845;48.670;9.000;2023-04-19T14:52:06;9.40;99.90
30001;DHT22;16845;48.670;9.000;2023-04-19T14:54:36;9.50;99.90
30001;DHT22;16845;48.670;9.000;2023-04-19T14:57:02;9.50;99.90
30001;DHT22;16845;48.670;9.000;2023-04-19T14:59:29;9.50;99.90
30001;DHT22;16845;48.670;9.000;2023-04-19T15:01:56;9.60;99.90
30001;DHT22;16845;48.670;9.000;2023-04-19T15:04:24;9.70;99.90
30001;DHT22;16845;48.670;9.000;2023-04-19T15:06:52;9.80;99.90
30001;DHT22;16845;48.670;9.000;2023-04-19T15:09:18;9.90;99.90
30001;DHT22;16845;48.670;9.000;2023-04-19T15:11:45;10.00;99.90
30001;DHT22;16845;48.670;9.000;2023-04-19T15:14:12;10.00;99.90
30001;DHT22;16845;48.670;9.000;2023-04-19T15:16:39;9.90;99.90
30001;DHT22;16845;48.670;9.000;2023-04-19T15:19:05;9.90;99.90
30001;DHT22;16845;48.670;9.000;2023-04-19T15:21:33;9.90;99.90
30001;DHT22;16845;48.670;9.000;2023-04-19T15:24:00;9.90;99.90
30001;DHT22;16845;48.670;9.000;2023-04-19T15:26:27;9.80;99.90
30001;DHT22;16845;48.670;9.000;2023-04-19T15:28:54;9.80;99.90
30001;DHT22;16845;48.670;9.000;2023-04-19T15:31:21;9.70;99.90
30001;DHT22;16845;48.670;9.000;2023-04-19T15:33:48;9.60;99.90
30001;DHT22;16845;48.670;9.000;2023-04-19T15:36:14;9.50;99.90
30001;DHT22;16845;48.670;9.000;2023-04-19T15:38:43;9.40;99.90
30001;DHT22;16845;48.670;9.000;2023-04-19T15:41:10;9.30;99.90
30001;DHT22;16845;48.670;9.000;2023-04-19T15:43:36;9.20;99.90
30001;DHT22;16845;48.670;9.000;2023-04-19T15:46:03;9.20;99.90
30001;DHT22;16845;48.670;9.000;2023-04-19T15:48:33;9.40;99.90
30001;DHT22;16845;48.670;9.000;2023-04-19T15:51:00;9.40;99.90
30001;DHT22;16845;48.670;9.000;2023-04-19T15:53:27;9.50;99.90
30001;DHT22;16845;48.670;9.000;2023-04-19T15:55:55;9.60;99.90